Time,TemperatureF,DewpointF,PressureIn,WindDirection,WindDirectionDegrees,WindSpeedMPH,WindSpeedGustMPH,Humidity,HourlyPrecipIn,Conditions,Clouds,dailyrainin,SoftwareType,DateUTC
2013-02-13 00:02:00,24.0,21.0,-100.00,WSW,245,1.0,3.0,92,-99.99,,,-99.99,,2013-02-13 06:02:00,
2013-02-13 00:11:00,24.0,21.0,-100.00,WSW,245,1.0,3.0,92,-99.99,,,-99.99,,2013-02-13 06:11:00,
2013-02-13 00:42:00,21.0,20.0,-100.00,WSW,245,1.0,1.0,96,-99.99,,,-99.99,,2013-02-13 06:42:00,
2013-02-13 00:52:00,21.0,20.0,-100.00,WSW,245,1.0,1.0,96,-99.99,,,-99.99,,2013-02-13 06:52:00,
2013-02-13 01:02:00,21.0,20.0,-100.00,WSW,245,1.0,1.0,96,-99.99,,,-99.99,,2013-02-13 07:02:00,
2013-02-13 01:11:00,21.0,20.0,-100.00,WSW,245,1.0,1.0,96,-99.99,,,-99.99,,2013-02-13 07:11:00,
2013-02-13 01:42:00,26.0,25.0,-100.00,WSW,245,1.0,4.0,98,-99.99,,,-99.99,,2013-02-13 07:42:00,
2013-02-13 01:52:00,26.0,25.0,-100.00,WSW,245,1.0,4.0,98,-99.99,,,-99.99,,2013-02-13 07:52:00,
2013-02-13 02:43:00,26.0,26.0,-100.00,WSW,245,3.0,7.0,98,-99.99,,,-99.99,,2013-02-13 08:43:00,
2013-02-13 02:52:00,26.0,26.0,-100.00,WSW,245,3.0,7.0,98,-99.99,,,-99.99,,2013-02-13 08:52:00,
2013-02-13 03:42:00,25.0,25.0,-100.00,SSW,195,4.0,9.0,99,-99.99,,,-99.99,,2013-02-13 09:42:00,
2013-02-13 03:52:00,25.0,25.0,-100.00,SSW,195,4.0,9.0,99,-99.99,,,-99.99,,2013-02-13 09:52:00,
2013-02-13 04:42:00,23.0,23.0,-100.00,South,190,0.0,2.0,99,-99.99,,,-99.99,,2013-02-13 10:42:00,
2013-02-13 04:52:00,23.0,23.0,-100.00,South,190,0.0,2.0,99,-99.99,,,-99.99,,2013-02-13 10:52:00,
2013-02-13 05:01:00,23.0,23.0,-100.00,South,190,0.0,2.0,99,-99.99,,,-99.99,,2013-02-13 11:01:00,
2013-02-13 05:11:00,23.0,23.0,-100.00,South,190,0.0,2.0,99,-99.99,,,-99.99,,2013-02-13 11:11:00,
2013-02-13 05:42:00,23.0,22.0,-100.00,SSW,195,1.0,3.0,99,-99.99,,,-99.99,,2013-02-13 11:42:00,
2013-02-13 05:52:00,23.0,22.0,-100.00,SSW,195,1.0,3.0,99,-99.99,,,-99.99,,2013-02-13 11:52:00,
2013-02-13 06:02:00,23.0,22.0,-100.00,SSW,195,1.0,3.0,99,-99.99,,,-99.99,,2013-02-13 12:02:00,
2013-02-13 06:42:00,23.0,23.0,-100.00,SSW,200,2.0,6.0,99,-99.99,,,-99.99,,2013-02-13 12:42:00,
2013-02-13 06:52:00,23.0,23.0,-100.00,SSW,200,2.0,6.0,99,-99.99,,,-99.99,,2013-02-13 12:52:00,
2013-02-13 07:42:00,24.0,24.0,-100.00,SSW,195,2.0,7.0,99,-99.99,,,-99.99,,2013-02-13 13:42:00,
2013-02-13 07:52:00,24.0,24.0,-100.00,SSW,195,2.0,7.0,99,-99.99,,,-99.99,,2013-02-13 13:52:00,
2013-02-13 08:42:00,25.0,25.0,-100.00,SSW,195,4.0,7.0,98,-99.99,,,-99.99,,2013-02-13 14:42:00,
2013-02-13 08:52:00,25.0,25.0,-100.00,SSW,195,4.0,7.0,98,-99.99,,,-99.99,,2013-02-13 14:52:00,
2013-02-13 09:01:00,25.0,25.0,-100.00,SSW,195,4.0,7.0,98,-99.99,,,-99.99,,2013-02-13 15:01:00,
2013-02-13 09:11:00,25.0,25.0,-100.00,SSW,195,4.0,7.0,98,-99.99,,,-99.99,,2013-02-13 15:11:00,
2013-02-13 10:30:00,33.0,27.0,-100.00,SW,215,2.0,6.0,79,-99.99,,,-99.99,,2013-02-13 16:30:00,
2013-02-13 10:52:00,33.0,27.0,-100.00,SW,215,2.0,6.0,79,-99.99,,,-99.99,,2013-02-13 16:52:00,
2013-02-13 11:01:00,33.0,27.0,-100.00,SW,215,2.0,6.0,79,-99.99,,,-99.99,,2013-02-13 17:01:00,
2013-02-13 11:11:00,33.0,27.0,-100.00,SW,215,2.0,6.0,79,-99.99,,,-99.99,,2013-02-13 17:11:00,
2013-02-13 11:21:00,33.0,27.0,-100.00,SW,215,2.0,6.0,79,-99.99,,,-99.99,,2013-02-13 17:21:00,
2013-02-13 11:52:00,35.0,27.0,-100.00,WNW,285,5.0,8.0,72,-99.99,,,-99.99,,2013-02-13 17:52:00,
2013-02-13 12:02:00,35.0,27.0,-100.00,WNW,285,5.0,8.0,72,-99.99,,,-99.99,,2013-02-13 18:02:00,
2013-02-13 12:11:00,35.0,27.0,-100.00,WNW,285,5.0,8.0,72,-99.99,,,-99.99,,2013-02-13 18:11:00,
2013-02-13 12:23:00,35.0,27.0,-100.00,WNW,285,5.0,8.0,72,-99.99,,,-99.99,,2013-02-13 18:23:00,
2013-02-13 12:52:00,41.0,27.0,-100.00,WNW,300,4.0,9.0,57,-99.99,,,-99.99,,2013-02-13 18:52:00,
2013-02-13 13:11:00,41.0,27.0,-100.00,WNW,300,4.0,9.0,57,-99.99,,,-99.99,,2013-02-13 19:11:00,
2013-02-13 13:21:00,41.0,27.0,-100.00,WNW,300,4.0,9.0,57,-99.99,,,-99.99,,2013-02-13 19:21:00,
2013-02-13 13:31:00,41.0,27.0,-100.00,WNW,300,4.0,9.0,57,-99.99,,,-99.99,,2013-02-13 19:31:00,
2013-02-13 15:01:00,40.0,26.0,-100.00,SW,225,1.0,7.0,57,-99.99,,,-99.99,,2013-02-13 21:01:00,
2013-02-13 15:11:00,40.0,26.0,-100.00,SW,225,1.0,7.0,57,-99.99,,,-99.99,,2013-02-13 21:11:00,
2013-02-13 15:21:00,40.0,26.0,-100.00,SW,225,1.0,7.0,57,-99.99,,,-99.99,,2013-02-13 21:21:00,
2013-02-13 15:31:00,40.0,26.0,-100.00,SW,225,1.0,7.0,57,-99.99,,,-99.99,,2013-02-13 21:31:00,
2013-02-13 15:42:00,39.0,26.0,-100.00,SW,225,2.0,5.0,60,-99.99,,,-99.99,,2013-02-13 21:42:00,
2013-02-13 15:52:00,39.0,26.0,-100.00,SW,225,2.0,5.0,60,-99.99,,,-99.99,,2013-02-13 21:52:00,
2013-02-13 16:02:00,39.0,26.0,-100.00,SW,225,2.0,5.0,60,-99.99,,,-99.99,,2013-02-13 22:02:00,
2013-02-13 16:11:00,39.0,26.0,-100.00,SW,225,2.0,5.0,60,-99.99,,,-99.99,,2013-02-13 22:11:00,
2013-02-13 16:42:00,38.0,26.0,-100.00,SW,225,2.0,7.0,63,-99.99,,,-99.99,,2013-02-13 22:42:00,
2013-02-13 16:52:00,38.0,26.0,-100.00,SW,225,2.0,7.0,63,-99.99,,,-99.99,,2013-02-13 22:52:00,
2013-02-13 17:01:00,38.0,26.0,-100.00,SW,225,2.0,7.0,63,-99.99,,,-99.99,,2013-02-13 23:01:00,
2013-02-13 17:11:00,38.0,26.0,-100.00,SW,225,2.0,7.0,63,-99.99,,,-99.99,,2013-02-13 23:11:00,
2013-02-13 17:42:00,37.0,26.0,-100.00,SW,225,2.0,5.0,65,-99.99,,,-99.99,,2013-02-13 23:42:00,
2013-02-13 17:52:00,37.0,26.0,-100.00,SW,225,2.0,5.0,65,-99.99,,,-99.99,,2013-02-13 23:52:00,
2013-02-13 18:02:00,37.0,26.0,-100.00,SW,225,2.0,5.0,65,-99.99,,,-99.99,,2013-02-14 00:02:00,
2013-02-13 18:11:00,37.0,26.0,-100.00,SW,225,2.0,5.0,65,-99.99,,,-99.99,,2013-02-14 00:11:00,
2013-02-13 18:43:00,36.0,27.0,-100.00,West,280,6.0,10.0,70,-99.99,,,-99.99,,2013-02-14 00:43:00,
2013-02-13 18:52:00,36.0,27.0,-100.00,West,280,6.0,10.0,70,-99.99,,,-99.99,,2013-02-14 00:52:00,
2013-02-13 19:01:00,36.0,27.0,-100.00,West,280,6.0,10.0,70,-99.99,,,-99.99,,2013-02-14 01:01:00,
2013-02-13 19:11:00,36.0,27.0,-100.00,West,280,6.0,10.0,70,-99.99,,,-99.99,,2013-02-14 01:11:00,
2013-02-13 19:42:00,35.0,28.0,-100.00,SSW,205,3.0,7.0,75,-99.99,,,-99.99,,2013-02-14 01:42:00,
2013-02-13 19:52:00,35.0,28.0,-100.00,SSW,205,3.0,7.0,75,-99.99,,,-99.99,,2013-02-14 01:52:00,
2013-02-13 20:01:00,35.0,28.0,-100.00,SSW,205,3.0,7.0,75,-99.99,,,-99.99,,2013-02-14 02:01:00,
2013-02-13 20:11:00,35.0,28.0,-100.00,SSW,205,3.0,7.0,75,-99.99,,,-99.99,,2013-02-14 02:11:00,
2013-02-13 21:02:00,35.0,29.0,-100.00,SSW,200,4.0,8.0,79,-99.99,,,-99.99,,2013-02-14 03:02:00,
2013-02-13 21:11:00,35.0,29.0,-100.00,SSW,200,4.0,8.0,79,-99.99,,,-99.99,,2013-02-14 03:11:00,
2013-02-13 21:42:00,34.0,30.0,-100.00,SSW,200,2.0,7.0,84,-99.99,,,-99.99,,2013-02-14 03:42:00,
2013-02-13 21:52:00,34.0,30.0,-100.00,SSW,200,2.0,7.0,84,-99.99,,,-99.99,,2013-02-14 03:52:00,
2013-02-13 22:01:00,34.0,30.0,-100.00,SSW,200,2.0,7.0,84,-99.99,,,-99.99,,2013-02-14 04:01:00,
2013-02-13 22:12:00,34.0,30.0,-100.00,SSW,200,2.0,7.0,84,-99.99,,,-99.99,,2013-02-14 04:12:00,
2013-02-13 22:42:00,34.0,31.0,-100.00,SSW,200,3.0,5.0,88,-99.99,,,-99.99,,2013-02-14 04:42:00,
2013-02-13 22:52:00,34.0,31.0,-100.00,SSW,200,3.0,5.0,88,-99.99,,,-99.99,,2013-02-14 04:52:00,
2013-02-13 23:02:00,34.0,31.0,-100.00,SSW,200,3.0,5.0,88,-99.99,,,-99.99,,2013-02-14 05:02:00,
2013-02-13 23:11:00,34.0,31.0,-100.00,SSW,200,3.0,5.0,88,-99.99,,,-99.99,,2013-02-14 05:11:00,
2013-02-13 23:21:00,33.0,33.0,-100.00,SSW,200,4.0,7.0,98,-99.99,,,-99.99,,2013-02-14 05:21:00,
2013-02-13 23:42:00,33.0,33.0,-100.00,SSW,200,4.0,7.0,98,-99.99,,,-99.99,,2013-02-14 05:42:00,
2013-02-13 23:52:00,33.0,33.0,-100.00,SSW,200,4.0,7.0,98,-99.99,,,-99.99,,2013-02-14 05:52:00,